sensor_id;sensor_type;location;lat;lon;timestamp;P1;P2;P0
78999;PMS7003;68406;53.914;27.416;2023-03-21T00:03:51;28.1;23.9;15.9
78999;PMS7003;68406;53.914;27.416;2023-03-21T00:09:27;29.9;24.5;16.5
78999;PMS7003;68406;53.914;27.416;2023-03-21T00:14:11;29.1;23.9;16.5
78999;PMS7003;68406;53.914;27.416;2023-03-21T00:19:05;29.8;25.3;17
78999;PMS7003;68406;53.914;27.416;2023-03-21T00:23:41;32.3;26.1;16.8
78999;PMS7003;68406;53.914;27.416;2023-03-21T00:29:13;29.2;24;15.9
78999;PMS7003;68406;53.914;27.416;2023-03-21T00:33:41;32.7;26.7;17.8
78999;PMS7003;68406;53.914;27.416;2023-03-21T00:39:05;31.8;26.3;17.7
78999;PMS7003;68406;53.914;27.416;2023-03-21T00:44:27;33.1;26.7;17.2
78999;PMS7003;68406;53.914;27.416;2023-03-21T00:48:41;30.4;25.2;17.1
78999;PMS7003;68406;53.914;27.416;2023-03-21T00:54:25;35;27.8;18
78999;PMS7003;68406;53.914;27.416;2023-03-21T00:59:17;32.9;27.7;18.1
78999;PMS7003;68406;53.914;27.416;2023-03-21T01:03:51;34.5;27.3;18.3
78999;PMS7003;68406;53.914;27.416;2023-03-21T01:08:43;35.4;27.6;17.9
78999;PMS7003;68406;53.914;27.416;2023-03-21T01:13:51;34.1;27.8;17.9
78999;PMS7003;68406;53.914;27.416;2023-03-21T01:19:25;34.2;27.9;18.2
78999;PMS7003;68406;53.914;27.416;2023-03-21T01:23:43;33.7;28.3;18.8
78999;PMS7003;68406;53.914;27.416;2023-03-21T01:29:25;36.8;28.9;18.6
78999;PMS7003;68406;53.914;27.416;2023-03-21T01:34:03;34.4;28.4;19.1
78999;PMS7003;68406;53.914;27.416;2023-03-21T01:39:25;34.6;27;18.3
78999;PMS7003;68406;53.914;27.416;2023-03-21T01:43:41;35.3;28.3;17.7
78999;PMS7003;68406;53.914;27.416;2023-03-21T01:48:56;37.5;29.8;19.7
78999;PMS7003;68406;53.914;27.416;2023-03-21T01:54:01;36.7;29.7;19.7
78999;PMS7003;68406;53.914;27.416;2023-03-21T01:58:41;40.5;31.9;20.7
78999;PMS7003;68406;53.914;27.416;2023-03-21T02:04:25;40.5;30.9;20.6
78999;PMS7003;68406;53.914;27.416;2023-03-21T02:09:02;38.1;31.3;20.3
78999;PMS7003;68406;53.914;27.416;2023-03-21T02:13:51;40.6;31.5;20.8
78999;PMS7003;68406;53.914;27.416;2023-03-21T02:19:31;38.8;31.4;20.8
78999;PMS7003;68406;53.914;27.416;2023-03-21T02:24:08;41.3;31.9;21
78999;PMS7003;68406;53.914;27.416;2023-03-21T02:28:42;42.2;33;21.5
78999;PMS7003;68406;53.914;27.416;2023-03-21T02:34:19;41;32.7;21.6
78999;PMS7003;68406;53.914;27.416;2023-03-21T02:39:26;41.2;32.2;21.6
78999;PMS7003;68406;53.914;27.416;2023-03-21T02:43:42;43.4;33.9;22.2
78999;PMS7003;68406;53.914;27.416;2023-03-21T02:48:58;42.4;34.1;22.5
78999;PMS7003;68406;53.914;27.416;2023-03-21T02:54:25;46.1;35.3;22.8
78999;PMS7003;68406;53.914;27.416;2023-03-21T02:59:25;43.9;34;22.1
78999;PMS7003;68406;53.914;27.416;2023-03-21T03:03:57;43.2;33.4;21.6
78999;PMS7003;68406;53.914;27.416;2023-03-21T03:09:06;45.1;34.9;23.1
78999;PMS7003;68406;53.914;27.416;2023-03-21T03:14:30;43.7;34.6;22.5
78999;PMS7003;68406;53.914;27.416;2023-03-21T03:19:10;39.6;31.9;21
78999;PMS7003;68406;53.914;27.416;2023-03-21T03:23:42;41.5;32.4;21.1
78999;PMS7003;68406;53.914;27.416;2023-03-21T03:28:54;44.4;33.3;22
78999;PMS7003;68406;53.914;27.416;2023-03-21T03:34:13;40.7;31.7;20.8
78999;PMS7003;68406;53.914;27.416;2023-03-21T03:38:53;40.7;32.3;21.2
78999;PMS7003;68406;53.914;27.416;2023-03-21T03:44:11;42.9;33.7;21.9
78999;PMS7003;68406;53.914;27.416;2023-03-21T03:49:26;43;33.7;21.7
78999;PMS7003;68406;53.914;27.416;2023-03-21T03:53:42;43.2;34.6;22.2
78999;PMS7003;68406;53.914;27.416;2023-03-21T03:59:11;43;32.9;21.3
78999;PMS7003;68406;53.914;27.416;2023-03-21T04:04:15;39.2;31.8;20.8
78999;PMS7003;68406;53.914;27.416;2023-03-21T04:08:41;43.3;32.6;20.6
78999;PMS7003;68406;53.914;27.416;2023-03-21T04:14:11;37.8;29.8;18.9
78999;PMS7003;68406;53.914;27.416;2023-03-21T04:19:23;37.2;30.5;20
78999;PMS7003;68406;53.914;27.416;2023-03-21T04:23:51;33.8;28.1;18.2
78999;PMS7003;68406;53.914;27.416;2023-03-21T04:29:11;36.2;28.6;18.4
78999;PMS7003;68406;53.914;27.416;2023-03-21T04:34:23;36.6;27.9;17.9
78999;PMS7003;68406;53.914;27.416;2023-03-21T04:39:01;34.3;28.1;17.6
78999;PMS7003;68406;53.914;27.416;2023-03-21T04:44:23;28.4;23.4;15.3
78999;PMS7003;68406;53.914;27.416;2023-03-21T04:49:25;26.7;23.1;15.4
78999;PMS7003;68406;53.914;27.416;2023-03-21T04:54:17;22.8;19.1;12.3
78999;PMS7003;68406;53.914;27.416;2023-03-21T04:58:55;20.8;18.1;12.4
78999;PMS7003;68406;53.914;27.416;2023-03-21T05:03:56;19.8;17;11.8
78999;PMS7003;68406;53.914;27.416;2023-03-21T05:09:13;21;17.3;11.9
78999;PMS7003;68406;53.914;27.416;2023-03-21T05:14:03;16.8;14.4;10.2
78999;PMS7003;68406;53.914;27.416;2023-03-21T05:18:41;18.1;15.4;10.9
78999;PMS7003;68406;53.914;27.416;2023-03-21T05:24:27;20.8;17;11.9
78999;PMS7003;68406;53.914;27.416;2023-03-21T05:29:03;16.2;13.3;9.4
78999;PMS7003;68406;53.914;27.416;2023-03-21T05:33:41;16.6;14.1;9.9
78999;PMS7003;68406;53.914;27.416;2023-03-21T05:39:05;16;13.8;9.8
78999;PMS7003;68406;53.914;27.416;2023-03-21T05:44:23;13.7;11;8
78999;PMS7003;68406;53.914;27.416;2023-03-21T05:48:49;12.2;10.9;7.6
78999;PMS7003;68406;53.914;27.416;2023-03-21T05:53:55;11.8;10.5;7.8
78999;PMS7003;68406;53.914;27.416;2023-03-21T05:59:23;10.6;8.7;6.7
78999;PMS7003;68406;53.914;27.416;2023-03-21T06:04:23;9.7;8.6;6.1
78999;PMS7003;68406;53.914;27.416;2023-03-21T06:08:55;10.1;8.1;5.8
78999;PMS7003;68406;53.914;27.416;2023-03-21T06:13:49;9.4;7.6;6
78999;PMS7003;68406;53.914;27.416;2023-03-21T06:19:23;9.2;7.6;5.7
78999;PMS7003;68406;53.914;27.416;2023-03-21T06:24:09;9.4;8.1;6.4
78999;PMS7003;68406;53.914;27.416;2023-03-21T06:29:11;9.5;7.8;5.5
78999;PMS7003;68406;53.914;27.416;2023-03-21T06:34:03;10;8.1;5.9
78999;PMS7003;68406;53.914;27.416;2023-03-21T06:39:11;9.4;8.3;6.1
78999;PMS7003;68406;53.914;27.416;2023-03-21T06:43:41;10.2;8;5.8
78999;PMS7003;68406;53.914;27.416;2023-03-21T06:49:01;19.9;15.6;11.2
78999;PMS7003;68406;53.914;27.416;2023-03-21T06:54:25;10.7;8.8;6.7
78999;PMS7003;68406;53.914;27.416;2023-03-21T06:58:49;8.6;7.2;5.6
78999;PMS7003;68406;53.914;27.416;2023-03-21T07:04:25;9;7.5;5.5
78999;PMS7003;68406;53.914;27.416;2023-03-21T07:09:17;7.7;5.7;4.2
78999;PMS7003;68406;53.914;27.416;2023-03-21T07:13:41;7.1;5.5;4.2
78999;PMS7003;68406;53.914;27.416;2023-03-21T07:19:09;8.1;6.6;5
78999;PMS7003;68406;53.914;27.416;2023-03-21T07:23:49;6.4;5.4;4.3
78999;PMS7003;68406;53.914;27.416;2023-03-21T07:28:41;4.1;3.4;2.7
78999;PMS7003;68406;53.914;27.416;2023-03-21T07:34:11;5.3;4.2;3.2
78999;PMS7003;68406;53.914;27.416;2023-03-21T07:39:23;4.1;3.4;2.8
78999;PMS7003;68406;53.914;27.416;2023-03-21T07:44:03;4.9;4.2;3.2
78999;PMS7003;68406;53.914;27.416;2023-03-21T07:49:25;5.1;3.7;2.8
78999;PMS7003;68406;53.914;27.416;2023-03-21T07:54:23;3.9;3;2.4
78999;PMS7003;68406;53.914;27.416;2023-03-21T07:59:17;5.8;4.5;3.4
78999;PMS7003;68406;53.914;27.416;2023-03-21T08:03:47;5.8;4.3;3
78999;PMS7003;68406;53.914;27.416;2023-03-21T08:08:41;5.9;4.7;3.5
78999;PMS7003;68406;53.914;27.416;2023-03-21T08:14:13;7.3;4.9;3.7
78999;PMS7003;68406;53.914;27.416;2023-03-21T08:18:53;9.5;7;5
78999;PMS7003;68406;53.914;27.416;2023-03-21T08:23:41;9.2;7.5;5.3
78999;PMS7003;68406;53.914;27.416;2023-03-21T08:29:25;9.4;6.6;4.8
78999;PMS7003;68406;53.914;27.416;2023-03-21T08:34:23;7.8;5.7;4.4
78999;PMS7003;68406;53.914;27.416;2023-03-21T08:38:41;6.3;5.1;3.9
78999;PMS7003;68406;53.914;27.416;2023-03-21T08:44:04;6;4.4;3.5
78999;PMS7003;68406;53.914;27.416;2023-03-21T08:49:09;4.5;3.9;2.6
78999;PMS7003;68406;53.914;27.416;2023-03-21T08:53:55;4.4;3.9;3
78999;PMS7003;68406;53.914;27.416;2023-03-21T08:58:55;3.2;2.5;2
78999;PMS7003;68406;53.914;27.416;2023-03-21T09:04:17;3.7;3;2.5
78999;PMS7003;68406;53.914;27.416;2023-03-21T09:08:47;3.5;2.7;2.2
78999;PMS7003;68406;53.914;27.416;2023-03-21T09:14:25;2.6;2;1.4
78999;PMS7003;68406;53.914;27.416;2023-03-21T09:19:01;3.1;2.2;1.9
78999;PMS7003;68406;53.914;27.416;2023-03-21T09:24:25;2.5;1.7;1.4
78999;PMS7003;68406;53.914;27.416;2023-03-21T09:28:43;2.4;1.9;1.5
78999;PMS7003;68406;53.914;27.416;2023-03-21T09:33:49;2.6;1.7;1.4
78999;PMS7003;68406;53.914;27.416;2023-03-21T09:39:17;2.5;1.9;1.5
78999;PMS7003;68406;53.914;27.416;2023-03-21T09:44:16;2.5;1.9;1.7
78999;PMS7003;68406;53.914;27.416;2023-03-21T09:48:43;2.7;2.4;1.9
78999;PMS7003;68406;53.914;27.416;2023-03-21T09:53:49;4.6;3.5;2.7
78999;PMS7003;68406;53.914;27.416;2023-03-21T09:59:27;3.4;2.6;2
78999;PMS7003;68406;53.914;27.416;2023-03-21T10:03:41;3.5;2.4;1.8
78999;PMS7003;68406;53.914;27.416;2023-03-21T10:09:26;3.6;2.8;2.3
78999;PMS7003;68406;53.914;27.416;2023-03-21T10:14:17;5.6;4.6;3.6
78999;PMS7003;68406;53.914;27.416;2023-03-21T10:18:42;5.7;4.4;3.5
78999;PMS7003;68406;53.914;27.416;2023-03-21T10:24:10;5.6;4.1;3.2
78999;PMS7003;68406;53.914;27.416;2023-03-21T10:29:01;3.2;2.6;2.1
78999;PMS7003;68406;53.914;27.416;2023-03-21T10:33:56;3.2;2.6;2
78999;PMS7003;68406;53.914;27.416;2023-03-21T10:39:14;4.7;3.7;2.9
78999;PMS7003;68406;53.914;27.416;2023-03-21T10:44:27;3.5;2.9;2.3
78999;PMS7003;68406;53.914;27.416;2023-03-21T10:48:55;4.6;3.7;2.7
78999;PMS7003;68406;53.914;27.416;2023-03-21T10:54:00;5.8;4.3;3.1
78999;PMS7003;68406;53.914;27.416;2023-03-21T10:59:16;5.1;4.2;3.4
78999;PMS7003;68406;53.914;27.416;2023-03-21T11:04:20;6;4.4;3.2
78999;PMS7003;68406;53.914;27.416;2023-03-21T11:08:43;5.6;3.9;3
78999;PMS7003;68406;53.914;27.416;2023-03-21T11:13:55;5.2;4.6;3.4
78999;PMS7003;68406;53.914;27.416;2023-03-21T11:19:14;5;4.2;3.3
78999;PMS7003;68406;53.914;27.416;2023-03-21T11:24:11;5.3;4.6;3.8
78999;PMS7003;68406;53.914;27.416;2023-03-21T11:28:49;5.7;4.6;3.4
78999;PMS7003;68406;53.914;27.416;2023-03-21T11:34:26;6.1;4.8;3.5
78999;PMS7003;68406;53.914;27.416;2023-03-21T11:39:29;5;4.2;3.2
78999;PMS7003;68406;53.914;27.416;2023-03-21T11:43:52;5.5;4.7;3.5
78999;PMS7003;68406;53.914;27.416;2023-03-21T11:49:03;6.9;5.6;4.4
78999;PMS7003;68406;53.914;27.416;2023-03-21T11:54:08;5;4.2;3.3
78999;PMS7003;68406;53.914;27.416;2023-03-21T11:58:45;5.8;3.9;3.1
78999;PMS7003;68406;53.914;27.416;2023-03-21T12:04:17;4.9;4.1;3.4
78999;PMS7003;68406;53.914;27.416;2023-03-21T12:09:23;5;3.6;2.8
78999;PMS7003;68406;53.914;27.416;2023-03-21T12:13:53;4.7;3.8;2.8
78999;PMS7003;68406;53.914;27.416;2023-03-21T12:19:32;3.5;2.9;2.3
78999;PMS7003;68406;53.914;27.416;2023-03-21T12:23:44;4.9;3.9;3
78999;PMS7003;68406;53.914;27.416;2023-03-21T12:29:35;3.4;2.9;2.3
78999;PMS7003;68406;53.914;27.416;2023-03-21T12:34:12;4;3.2;2.4
78999;PMS7003;68406;53.914;27.416;2023-03-21T12:39:26;4.8;3.3;2.7
78999;PMS7003;68406;53.914;27.416;2023-03-21T12:44:04;3.5;2.5;2.1
78999;PMS7003;68406;53.914;27.416;2023-03-21T12:48:58;3.9;1.9;1.6
78999;PMS7003;68406;53.914;27.416;2023-03-21T12:54:07;2.7;2.1;1.6
78999;PMS7003;68406;53.914;27.416;2023-03-21T12:59:04;2.9;2.3;1.7
78999;PMS7003;68406;53.914;27.416;2023-03-21T13:03:50;2.6;1.8;1.5
78999;PMS7003;68406;53.914;27.416;2023-03-21T13:08:57;3.3;2.3;1.7
78999;PMS7003;68406;53.914;27.416;2023-03-21T13:14:26;5;3.3;2.7
78999;PMS7003;68406;53.914;27.416;2023-03-21T13:19:09;5;3.6;2.8
78999;PMS7003;68406;53.914;27.416;2023-03-21T13:24:14;4;3;2.2
78999;PMS7003;68406;53.914;27.416;2023-03-21T13:29:11;4.8;3.2;2.6
78999;PMS7003;68406;53.914;27.416;2023-03-21T13:33:50;5.2;4.1;3.3
78999;PMS7003;68406;53.914;27.416;2023-03-21T13:38:43;5.8;4.4;3.4
78999;PMS7003;68406;53.914;27.416;2023-03-21T13:44:07;5.3;4.3;3.2
78999;PMS7003;68406;53.914;27.416;2023-03-21T13:49:29;5.7;4.5;3.6
78999;PMS7003;68406;53.914;27.416;2023-03-21T13:54:15;6.7;5;3.7
78999;PMS7003;68406;53.914;27.416;2023-03-21T13:59:36;5.6;4.8;3.8
78999;PMS7003;68406;53.914;27.416;2023-03-21T14:04:19;6;4.4;3.4
78999;PMS7003;68406;53.914;27.416;2023-03-21T14:09:21;6.9;5.5;4.3
78999;PMS7003;68406;53.914;27.416;2023-03-21T14:13:58;7.1;4.8;3.7
78999;PMS7003;68406;53.914;27.416;2023-03-21T14:18:59;6.1;5.3;4
78999;PMS7003;68406;53.914;27.416;2023-03-21T14:24:13;9.8;7.2;5.6
78999;PMS7003;68406;53.914;27.416;2023-03-21T14:29:14;8.1;7;5.5
78999;PMS7003;68406;53.914;27.416;2023-03-21T14:33:56;8.3;6.6;4.8
78999;PMS7003;68406;53.914;27.416;2023-03-21T14:39:26;8;6.4;4.9
78999;PMS7003;68406;53.914;27.416;2023-03-21T14:44:24;10;7.3;5.5
78999;PMS7003;68406;53.914;27.416;2023-03-21T14:48:41;9.7;7.9;5.7
78999;PMS7003;68406;53.914;27.416;2023-03-21T14:53:56;5.6;4.6;3.6
78999;PMS7003;68406;53.914;27.416;2023-03-21T14:59:10;4.4;3.7;2.9
78999;PMS7003;68406;53.914;27.416;2023-03-21T15:03:48;4.8;4;3.1
78999;PMS7003;68406;53.914;27.416;2023-03-21T15:08:51;4.5;3.6;2.8
78999;PMS7003;68406;53.914;27.416;2023-03-21T15:13:58;4.3;3.8;3
78999;PMS7003;68406;53.914;27.416;2023-03-21T15:18:41;3.2;2.2;1.7
78999;PMS7003;68406;53.914;27.416;2023-03-21T15:24:28;1.7;1.3;0.9
78999;PMS7003;68406;53.914;27.416;2023-03-21T15:28:54;1.6;1.2;1
78999;PMS7003;68406;53.914;27.416;2023-03-21T15:34:28;1.1;0.8;0.6
78999;PMS7003;68406;53.914;27.416;2023-03-21T15:39:12;1.2;0.7;0.5
78999;PMS7003;68406;53.914;27.416;2023-03-21T15:44:28;1.4;0.9;0.6
78999;PMS7003;68406;53.914;27.416;2023-03-21T15:49:05;1.8;1.4;1
78999;PMS7003;68406;53.914;27.416;2023-03-21T15:54:00;1.6;1.4;1.2
78999;PMS7003;68406;53.914;27.416;2023-03-21T15:58:42;1.7;1.5;1.1
78999;PMS7003;68406;53.914;27.416;2023-03-21T16:04:19;1.9;1.6;1.2
78999;PMS7003;68406;53.914;27.416;2023-03-21T16:09:03;2.4;1.6;1.3
78999;PMS7003;68406;53.914;27.416;2023-03-21T16:13:41;5.6;4.5;3.2
78999;PMS7003;68406;53.914;27.416;2023-03-21T16:19:27;2.4;1.7;1.3
78999;PMS7003;68406;53.914;27.416;2023-03-21T16:24:12;2.6;2.2;1.7
78999;PMS7003;68406;53.914;27.416;2023-03-21T16:28:52;2.3;2;1.4
78999;PMS7003;68406;53.914;27.416;2023-03-21T16:34:27;2.9;2.1;1.7
78999;PMS7003;68406;53.914;27.416;2023-03-21T16:38:41;2.2;1.7;1.5
78999;PMS7003;68406;53.914;27.416;2023-03-21T16:44:03;2;1.7;1.3
78999;PMS7003;68406;53.914;27.416;2023-03-21T16:48:54;1.8;1.5;1.3
78999;PMS7003;68406;53.914;27.416;2023-03-21T16:54:09;1.7;1.3;0.9
78999;PMS7003;68406;53.914;27.416;2023-03-21T16:58:52;1.7;1.3;1.1
78999;PMS7003;68406;53.914;27.416;2023-03-21T17:03:56;2;1.3;1.1
78999;PMS7003;68406;53.914;27.416;2023-03-21T17:09:27;1.9;1.2;1
78999;PMS7003;68406;53.914;27.416;2023-03-21T17:14:08;2.5;2.1;1.6
78999;PMS7003;68406;53.914;27.416;2023-03-21T17:18:42;3;2.5;2.1
78999;PMS7003;68406;53.914;27.416;2023-03-21T17:23:41;2.3;2.1;1.7
78999;PMS7003;68406;53.914;27.416;2023-03-21T17:29:27;5;4.4;3.5
78999;PMS7003;68406;53.914;27.416;2023-03-21T17:34:09;3.2;2.3;1.8
78999;PMS7003;68406;53.914;27.416;2023-03-21T17:38:42;4;2.9;2.3
78999;PMS7003;68406;53.914;27.416;2023-03-21T17:44:27;3.8;2.9;2.4
78999;PMS7003;68406;53.914;27.416;2023-03-21T17:49:27;3;2.2;1.9
78999;PMS7003;68406;53.914;27.416;2023-03-21T17:53:51;3.5;2.7;2.1
78999;PMS7003;68406;53.914;27.416;2023-03-21T17:58:41;4;3.1;2.3
78999;PMS7003;68406;53.914;27.416;2023-03-21T18:03:43;3.8;3.3;2.5
78999;PMS7003;68406;53.914;27.416;2023-03-21T18:08:42;3.6;3.2;2.6
78999;PMS7003;68406;53.914;27.416;2023-03-21T18:13:57;3.4;3.1;2.8
78999;PMS7003;68406;53.914;27.416;2023-03-21T18:19:19;2.8;2.4;1.9
78999;PMS7003;68406;53.914;27.416;2023-03-21T18:23:42;3.5;3;2.3
78999;PMS7003;68406;53.914;27.416;2023-03-21T18:29:27;3.9;3.3;2.6
78999;PMS7003;68406;53.914;27.416;2023-03-21T18:34:01;3.7;3;2.4
78999;PMS7003;68406;53.914;27.416;2023-03-21T18:39:22;4.7;4.2;3.1
78999;PMS7003;68406;53.914;27.416;2023-03-21T18:44:11;4.3;3.8;3
78999;PMS7003;68406;53.914;27.416;2023-03-21T18:49:27;4.7;3.6;2.8
78999;PMS7003;68406;53.914;27.416;2023-03-21T18:54:05;4.7;4;3.1
78999;PMS7003;68406;53.914;27.416;2023-03-21T18:59:13;4;3.5;2.8
78999;PMS7003;68406;53.914;27.416;2023-03-21T19:03:41;5.6;4.3;3.6
78999;PMS7003;68406;53.914;27.416;2023-03-21T19:09:19;5.4;4.2;3.3
78999;PMS7003;68406;53.914;27.416;2023-03-21T19:13:58;4.2;3.5;2.8
78999;PMS7003;68406;53.914;27.416;2023-03-21T19:18:42;3.5;3.1;2.6
78999;PMS7003;68406;53.914;27.416;2023-03-21T19:24:28;3.6;3.3;2.8
78999;PMS7003;68406;53.914;27.416;2023-03-21T19:29:03;3.9;3;2.4
78999;PMS7003;68406;53.914;27.416;2023-03-21T19:34:06;5.8;4.5;3.4
78999;PMS7003;68406;53.914;27.416;2023-03-21T19:39:28;3.9;3.1;2.5
78999;PMS7003;68406;53.914;27.416;2023-03-21T19:43:53;3.1;2.5;2.1
78999;PMS7003;68406;53.914;27.416;2023-03-21T19:49:02;3.1;2.6;2.1
78999;PMS7003;68406;53.914;27.416;2023-03-21T19:54:14;3.4;2.7;2.3
78999;PMS7003;68406;53.914;27.416;2023-03-21T19:59:26;4;2.9;2.2
78999;PMS7003;68406;53.914;27.416;2023-03-21T20:03:52;3.6;2.9;2.4
78999;PMS7003;68406;53.914;27.416;2023-03-21T20:08:58;3.9;3.4;2.8
78999;PMS7003;68406;53.914;27.416;2023-03-21T20:14:18;4.6;4;3.1
78999;PMS7003;68406;53.914;27.416;2023-03-21T20:19:26;5.6;3.7;3
78999;PMS7003;68406;53.914;27.416;2023-03-21T20:23:48;3.3;2.8;2.4
78999;PMS7003;68406;53.914;27.416;2023-03-21T20:28:42;3.3;2.8;2.3
78999;PMS7003;68406;53.914;27.416;2023-03-21T20:34:28;3.5;2.8;2.4
78999;PMS7003;68406;53.914;27.416;2023-03-21T20:39:12;3.9;3.1;2.5
78999;PMS7003;68406;53.914;27.416;2023-03-21T20:43:52;4.3;3.2;2.7
78999;PMS7003;68406;53.914;27.416;2023-03-21T20:49:06;3.1;2.8;2.3
78999;PMS7003;68406;53.914;27.416;2023-03-21T20:54:14;3.1;2.2;1.7
78999;PMS7003;68406;53.914;27.416;2023-03-21T20:58:52;2.6;1.9;1.6
78999;PMS7003;68406;53.914;27.416;2023-03-21T21:04:14;2.9;2;1.6
78999;PMS7003;68406;53.914;27.416;2023-03-21T21:08:58;2.3;1.9;1.6
78999;PMS7003;68406;53.914;27.416;2023-03-21T21:14:26;2.9;2.1;1.8
78999;PMS7003;68406;53.914;27.416;2023-03-21T21:19:26;2.3;1.9;1.6
78999;PMS7003;68406;53.914;27.416;2023-03-21T21:24:10;2.3;1.8;1.5
78999;PMS7003;68406;53.914;27.416;2023-03-21T21:29:02;2.1;1.9;1.5
78999;PMS7003;68406;53.914;27.416;2023-03-21T21:34:24;2.1;1.8;1.6
78999;PMS7003;68406;53.914;27.416;2023-03-21T21:39:10;3;2.3;1.9
78999;PMS7003;68406;53.914;27.416;2023-03-21T21:44:14;2.4;1.8;1.5
78999;PMS7003;68406;53.914;27.416;2023-03-21T21:49:10;3.1;1.9;1.5
78999;PMS7003;68406;53.914;27.416;2023-03-21T21:53:52;3.5;2.1;1.7
78999;PMS7003;68406;53.914;27.416;2023-03-21T21:59:26;2.3;1.8;1.5
78999;PMS7003;68406;53.914;27.416;2023-03-21T22:04:12;3.3;2.4;1.8
78999;PMS7003;68406;53.914;27.416;2023-03-21T22:09:08;3.1;2.7;2.3
78999;PMS7003;68406;53.914;27.416;2023-03-21T22:14:12;3.9;2.8;2.3
78999;PMS7003;68406;53.914;27.416;2023-03-21T22:19:02;4.4;2.9;2.3
78999;PMS7003;68406;53.914;27.416;2023-03-21T22:24:26;3.3;2.8;2.1
78999;PMS7003;68406;53.914;27.416;2023-03-21T22:29:10;2.1;1.6;1.3
78999;PMS7003;68406;53.914;27.416;2023-03-21T22:34:06;2.9;2.3;1.8
78999;PMS7003;68406;53.914;27.416;2023-03-21T22:39:12;3.2;2.6;2.1
78999;PMS7003;68406;53.914;27.416;2023-03-21T22:43:52;2.7;2.4;1.9
78999;PMS7003;68406;53.914;27.416;2023-03-21T22:49:28;2.6;2.1;1.8
78999;PMS7003;68406;53.914;27.416;2023-03-21T22:54:00;2.8;2.1;1.6
78999;PMS7003;68406;53.914;27.416;2023-03-21T22:58:42;3.3;2.3;2
78999;PMS7003;68406;53.914;27.416;2023-03-21T23:04:10;2.7;2.3;1.9
78999;PMS7003;68406;53.914;27.416;2023-03-21T23:08:52;3.4;2.8;2.4
78999;PMS7003;68406;53.914;27.416;2023-03-21T23:14:26;3.3;2.7;1.9
78999;PMS7003;68406;53.914;27.416;2023-03-21T23:19:12;3.2;2.5;2
78999;PMS7003;68406;53.914;27.416;2023-03-21T23:24:08;3.1;2.6;1.8
78999;PMS7003;68406;53.914;27.416;2023-03-21T23:29:28;3.2;2.6;2.3
78999;PMS7003;68406;53.914;27.416;2023-03-21T23:33:50;3.5;2.5;2.1
78999;PMS7003;68406;53.914;27.416;2023-03-21T23:39:26;4.3;3.1;2.3
78999;PMS7003;68406;53.914;27.416;2023-03-21T23:44:04;4.9;3.5;2.6
78999;PMS7003;68406;53.914;27.416;2023-03-21T23:49:06;3.9;2.9;2.2
78999;PMS7003;68406;53.914;27.416;2023-03-21T23:54:12;3.5;2.4;1.9
78999;PMS7003;68406;53.914;27.416;2023-03-21T23:58:42;3;2.5;2.1
